Time;durP1;ratioP1;P1;durP2;ratioP2;P2;SDS_P1;SDS_P2;PMS_P1;PMS_P2;Temp;Humidity;BMP_temperature;BMP_pressure;BME280_temperature;BME280_humidity;BME280_pressure;Samples;Min_cycle;Max_cycle;Signal;HPM_P1;HPM_P2
2023/06/25 00:01:48;;;;;;;6.38;3.40;;;;;;;14.75;65.34;101058.41;5046206;28;20021;-63
2023/06/25 00:04:14;;;;;;;10.88;3.85;;;;;;;14.72;65.64;101054.97;5046073;28;20026;-64
2023/06/25 00:06:39;;;;;;;5.78;3.75;;;;;;;14.68;65.41;101050.72;5045883;28;20021;-64
2023/06/25 00:09:04;;;;;;;8.60;4.13;;;;;;;14.65;65.65;101061.19;5045621;28;20021;-64
2023/06/25 00:11:30;;;;;;;5.90;3.47;;;;;;;14.61;65.56;101053.41;5045934;28;20025;-63
2023/06/25 00:13:55;;;;;;;6.70;4.07;;;;;;;14.58;65.43;101058.69;5027728;28;20551;-64
2023/06/25 00:16:21;;;;;;;5.25;3.35;;;;;;;14.56;65.55;101060.44;5044732;28;20060;-64
2023/06/25 00:18:47;;;;;;;5.30;3.63;;;;;;;14.52;65.93;101053.53;5045528;28;20031;-63
2023/06/25 00:21:12;;;;;;;5.40;3.17;;;;;;;14.49;65.88;101049.22;5045811;28;20056;-64
2023/06/25 00:23:38;;;;;;;6.90;4.35;;;;;;;14.50;65.67;101053.53;5045454;28;20021;-64
2023/06/25 00:26:04;;;;;;;4.35;3.80;;;;;;;14.53;65.76;101054.41;5045438;28;20053;-63
2023/06/25 00:28:29;;;;;;;6.75;4.40;;;;;;;14.50;65.63;101057.94;5045445;28;20529;-64
2023/06/25 00:30:54;;;;;;;9.27;3.20;;;;;;;14.50;65.27;101055.31;5045551;28;20056;-63
2023/06/25 00:33:20;;;;;;;7.45;3.22;;;;;;;14.47;65.41;101053.59;5045583;28;20030;-64
2023/06/25 00:35:51;;;;;;;5.57;3.40;;;;;;;14.54;65.71;101056.97;5025786;28;20109;-64
2023/06/25 00:38:17;;;;;;;4.90;3.72;;;;;;;14.54;65.59;101056.13;5025608;28;20033;-64
2023/06/25 00:40:43;;;;;;;8.07;3.72;;;;;;;14.53;65.48;101057.88;5024370;28;20033;-64
2023/06/25 00:43:08;;;;;;;6.05;3.70;;;;;;;14.46;65.54;101051.88;5024995;28;20113;-64
2023/06/25 00:45:34;;;;;;;5.20;3.33;;;;;;;14.54;65.55;101062.22;5025508;28;20029;-64
2023/06/25 00:48:01;;;;;;;6.72;3.65;;;;;;;14.51;65.53;101059.66;5025616;28;20073;-64
2023/06/25 00:50:27;;;;;;;8.23;2.78;;;;;;;14.50;65.56;101071.00;5025677;28;20462;-64
2023/06/25 00:52:54;;;;;;;4.07;3.17;;;;;;;14.49;65.30;101064.91;5025416;28;20041;-64
2023/06/25 00:55:20;;;;;;;7.32;3.75;;;;;;;14.47;65.38;101064.03;5040972;28;20021;-64
2023/06/25 00:57:46;;;;;;;8.43;4.65;;;;;;;14.46;65.67;101064.06;5023656;28;20053;-64
2023/06/25 01:00:14;;;;;;;6.82;4.25;;;;;;;14.45;65.48;101062.34;5025569;28;20026;-64
2023/06/25 01:02:46;;;;;;;9.63;3.78;;;;;;;14.46;65.41;101064.06;5025477;28;20026;-64
2023/06/25 01:05:20;;;;;;;;;;;;;;;14.51;65.58;101067.47;5025939;28;20045;-64
2023/06/25 01:07:45;;;;;;;11.38;3.55;;;;;;;14.48;65.76;101062.31;5025351;28;19910;-64
2023/06/25 01:10:12;;;;;;;6.47;4.32;;;;;;;14.49;65.99;101067.50;5025594;28;20181;-65
2023/06/25 01:12:38;;;;;;;6.57;4.22;;;;;;;14.46;66.43;101059.72;5024798;28;20026;-64
2023/06/25 01:15:04;;;;;;;5.68;3.92;;;;;;;14.42;66.26;101042.38;5025460;28;20029;-64
2023/06/25 01:17:30;;;;;;;4.45;3.10;;;;;;;14.51;66.02;101059.66;5025117;28;20026;-65
2023/06/25 01:19:55;;;;;;;8.05;5.00;;;;;;;14.40;66.12;101043.25;5025387;28;20030;-64
2023/06/25 01:22:29;;;;;;;5.72;3.78;;;;;;;14.56;66.47;101064.81;5025197;28;20033;-64
2023/06/25 01:24:56;;;;;;;11.23;3.92;;;;;;;14.41;66.59;101035.41;5025347;28;20025;-65
2023/06/25 01:27:22;;;;;;;8.70;4.85;;;;;;;14.57;66.59;101056.94;5025142;28;20069;-65
2023/06/25 01:29:48;;;;;;;7.05;3.83;;;;;;;14.57;66.37;101064.78;5025133;28;20022;-64
2023/06/25 01:32:14;;;;;;;6.47;4.32;;;;;;;14.59;66.17;101062.13;5025088;28;20029;-64
2023/06/25 01:34:40;;;;;;;10.23;4.55;;;;;;;14.57;66.26;101059.56;5040227;28;20053;-64
2023/06/25 01:37:06;;;;;;;7.20;4.90;;;;;;;14.53;66.47;101062.22;5028840;28;20022;-65
2023/06/25 01:39:32;;;;;;;9.02;4.72;;;;;;;14.52;66.53;101063.97;5027759;28;20563;-63
2023/06/25 01:41:58;;;;;;;6.40;4.00;;;;;;;14.48;66.75;101062.31;5028922;28;20041;-63
2023/06/25 01:44:28;;;;;;;12.82;5.10;;;;;;;14.45;67.05;101068.44;5028729;28;20037;-63
2023/06/25 01:46:55;;;;;;;8.07;4.53;;;;;;;14.42;66.82;101065.00;5028967;28;20366;-63
2023/06/25 01:49:21;;;;;;;11.02;5.70;;;;;;;14.38;66.64;101064.16;5027466;28;20025;-64
2023/06/25 01:51:46;;;;;;;8.00;4.25;;;;;;;14.35;66.31;101057.25;5028676;28;20490;-63
2023/06/25 01:54:12;;;;;;;7.95;4.18;;;;;;;14.33;66.43;101061.63;5028834;28;20203;-64
2023/06/25 01:56:37;;;;;;;8.50;4.68;;;;;;;14.31;66.26;101062.53;5028730;28;20049;-63
2023/06/25 01:59:02;;;;;;;5.78;4.10;;;;;;;14.28;66.31;101058.22;5028421;28;20022;-64
2023/06/25 02:01:29;;;;;;;11.38;3.88;;;;;;;14.28;66.58;101050.38;5028713;28;20025;-64
2023/06/25 02:03:55;;;;;;;11.05;5.55;;;;;;;14.30;66.71;101050.34;5028504;28;20026;-64
2023/06/25 02:06:20;;;;;;;7.10;4.68;;;;;;;14.32;66.97;101049.47;5028652;28;20032;-64
2023/06/25 02:08:45;;;;;;;12.05;4.82;;;;;;;14.38;66.98;101051.13;5028430;28;20026;-64
2023/06/25 02:11:11;;;;;;;8.32;5.38;;;;;;;14.34;66.94;101032.03;5028448;28;20085;-64
2023/06/25 02:13:36;;;;;;;11.02;5.20;;;;;;;14.49;67.18;101051.81;5028095;28;20481;-64
2023/06/25 02:16:02;;;;;;;8.98;4.65;;;;;;;14.51;67.16;101046.59;5028505;28;20053;-64
2023/06/25 02:18:31;;;;;;;6.05;4.22;;;;;;;14.53;67.00;101052.66;5028296;28;20045;-64
2023/06/25 02:20:57;;;;;;;12.05;4.35;;;;;;;14.52;66.89;101050.91;5028426;28;20092;-63
2023/06/25 02:23:23;;;;;;;11.07;6.05;;;;;;;14.50;66.91;101048.31;5028063;28;20039;-64
2023/06/25 02:25:50;;;;;;;10.70;5.70;;;;;;;14.47;66.83;101045.75;5028222;28;20026;-63
2023/06/25 02:28:16;;;;;;;7.30;5.18;;;;;;;14.48;67.00;101046.63;5028025;28;20105;-63
2023/06/25 02:30:41;;;;;;;10.60;5.95;;;;;;;14.49;67.00;101043.13;5028069;28;20026;-63
2023/06/25 02:33:07;;;;;;;7.18;4.50;;;;;;;14.45;66.93;101041.44;5027853;28;20393;-64
2023/06/25 02:35:32;;;;;;;8.18;5.05;;;;;;;14.45;67.70;101046.66;5045832;28;20050;-63
2023/06/25 02:37:58;;;;;;;10.38;5.03;;;;;;;14.44;67.95;101045.81;5047641;28;20060;-63
2023/06/25 02:40:23;;;;;;;5.15;4.28;;;;;;;14.48;68.17;101046.63;5047859;28;20082;-64
2023/06/25 02:42:49;;;;;;;9.13;4.90;;;;;;;14.49;67.92;101030.06;5045964;28;20418;-64
2023/06/25 02:45:14;;;;;;;8.10;5.72;;;;;;;14.63;68.00;101040.31;5047716;28;20026;-63
2023/06/25 02:47:40;;;;;;;7.50;4.85;;;;;;;14.74;68.03;101037.53;5046174;28;20104;-64
2023/06/25 02:50:06;;;;;;;13.35;5.35;;;;;;;14.78;68.05;101033.09;5029619;28;20068;-63
2023/06/25 02:52:31;;;;;;;6.72;4.70;;;;;;;14.80;67.99;101029.63;5047371;28;20029;-63
2023/06/25 02:54:56;;;;;;;6.43;4.18;;;;;;;14.87;68.32;101035.63;5047375;28;20073;-63
2023/06/25 02:57:29;;;;;;;8.80;4.07;;;;;;;14.95;68.69;101036.34;5047256;28;20029;-63
2023/06/25 02:59:55;;;;;;;9.43;4.38;;;;;;;15.01;69.16;101030.16;5047157;28;20032;-63
2023/06/25 03:02:20;;;;;;;5.22;3.45;;;;;;;15.07;69.15;101035.28;5047346;28;20055;-64
2023/06/25 03:04:46;;;;;;;6.10;4.25;;;;;;;15.13;69.06;101036.91;5047349;28;20108;-63
2023/06/25 03:07:11;;;;;;;19.35;5.22;;;;;;;15.22;69.26;101030.69;5047184;28;20018;-63
2023/06/25 03:09:37;;;;;;;8.30;5.38;;;;;;;15.33;69.77;101041.81;5046991;28;20022;-63
2023/06/25 03:12:02;;;;;;;8.98;4.93;;;;;;;15.46;69.25;101042.44;5047179;28;20032;-63
2023/06/25 03:14:28;;;;;;;7.03;4.57;;;;;;;15.57;69.25;101044.00;5046695;28;20025;-64
2023/06/25 03:16:53;;;;;;;7.13;4.25;;;;;;;15.65;69.21;101038.59;5046976;28;20473;-64
2023/06/25 03:19:19;;;;;;;6.88;3.80;;;;;;;15.76;69.63;101038.38;5047109;28;20037;-64
2023/06/25 03:21:44;;;;;;;10.43;5.68;;;;;;;15.83;69.86;101042.63;5046856;28;20053;-63
2023/06/25 03:24:10;;;;;;;8.15;5.50;;;;;;;15.90;69.80;101040.72;5045757;28;20029;-64
2023/06/25 03:26:35;;;;;;;8.10;4.13;;;;;;;16.03;69.76;101050.09;5046690;28;20033;-64
2023/06/25 03:29:00;;;;;;;9.95;5.28;;;;;;;16.08;69.73;101040.41;5046717;28;20320;-63
2023/06/25 03:31:26;;;;;;;8.50;4.32;;;;;;;16.18;70.37;101043.66;5046820;28;20108;-63
2023/06/25 03:33:51;;;;;;;5.97;5.30;;;;;;;16.25;71.37;101043.50;5046341;28;20059;-64
2023/06/25 03:36:17;;;;;;;7.45;5.57;;;;;;;16.30;71.63;101042.53;5045421;28;20056;-64
2023/06/25 03:38:43;;;;;;;8.98;6.13;;;;;;;16.43;70.97;101040.50;5046292;28;20381;-64
2023/06/25 03:41:08;;;;;;;9.95;4.43;;;;;;;16.55;70.35;101028.84;5046717;28;20045;-63
2023/06/25 03:43:33;;;;;;;7.03;4.50;;;;;;;16.62;71.19;101031.34;5046086;28;20035;-63
2023/06/25 03:45:59;;;;;;;6.88;4.32;;;;;;;16.56;71.85;101027.97;5046377;28;20379;-63
2023/06/25 03:48:24;;;;;;;6.47;4.38;;;;;;;16.63;71.70;101033.91;5046324;28;20087;-63
2023/06/25 03:50:50;;;;;;;10.80;4.72;;;;;;;16.64;71.37;101019.94;5046408;28;20036;-63
2023/06/25 03:53:18;;;;;;;6.07;4.50;;;;;;;16.72;72.08;101027.59;5045997;28;20029;-63
2023/06/25 03:55:44;;;;;;;5.40;4.43;;;;;;;16.83;71.45;101028.22;5046077;28;20263;-62
2023/06/25 03:58:09;;;;;;;7.18;4.50;;;;;;;16.88;71.28;101020.22;5045482;28;20049;-63
2023/06/25 04:00:34;;;;;;;13.88;5.28;;;;;;;16.98;71.38;101026.94;5046221;28;20466;-63
2023/06/25 04:03:00;;;;;;;8.43;4.97;;;;;;;17.08;70.81;101030.22;5045858;28;20464;-64
2023/06/25 04:05:25;;;;;;;5.38;4.65;;;;;;;17.18;70.73;101030.88;5046180;28;20052;-63
2023/06/25 04:07:51;;;;;;;11.25;5.03;;;;;;;17.25;70.80;101025.44;5046004;28;20032;-64
2023/06/25 04:10:16;;;;;;;9.15;5.25;;;;;;;17.31;70.98;101025.28;5046153;28;20048;-64
2023/06/25 04:12:42;;;;;;;7.95;5.63;;;;;;;17.39;71.17;101030.31;5045867;28;20028;-63
2023/06/25 04:15:08;;;;;;;14.48;5.60;;;;;;;17.45;70.96;101031.03;5044297;28;20029;-63
2023/06/25 04:17:33;;;;;;;6.25;4.05;;;;;;;17.53;70.54;101036.06;5045912;28;20028;-63
2023/06/25 04:19:58;;;;;;;10.10;4.90;;;;;;;17.50;70.00;101025.66;5045776;28;20017;-64
2023/06/25 04:22:24;;;;;;;6.38;4.35;;;;;;;17.52;70.37;101025.59;5045742;28;20025;-64
2023/06/25 04:24:49;;;;;;;5.40;3.67;;;;;;;17.54;70.04;101034.31;5044584;28;20029;-63
2023/06/25 04:27:15;;;;;;;9.18;4.07;;;;;;;17.52;69.75;101028.22;5045434;28;20029;-63
2023/06/25 04:29:40;;;;;;;6.90;4.30;;;;;;;17.51;69.79;101024.72;5044073;28;20084;-63
2023/06/25 04:32:06;;;;;;;8.10;4.80;;;;;;;17.48;69.60;101021.34;5027808;28;20048;-63
2023/06/25 04:34:32;;;;;;;6.68;4.72;;;;;;;17.50;69.95;101017.78;5045304;28;20394;-63
2023/06/25 04:36:57;;;;;;;9.82;5.32;;;;;;;17.57;70.13;101023.72;5044131;28;20026;-63
2023/06/25 04:39:23;;;;;;;5.45;3.88;;;;;;;17.70;69.88;101025.06;5045425;28;20029;-63
2023/06/25 04:41:48;;;;;;;4.75;3.80;;;;;;;17.76;69.51;101024.06;5027627;28;20049;-64
2023/06/25 04:44:14;;;;;;;11.65;4.82;;;;;;;17.77;69.48;101015.25;5045207;28;20040;-63
2023/06/25 04:46:39;;;;;;;4.97;3.92;;;;;;;17.82;69.73;101023.88;5045538;28;20052;-63
2023/06/25 04:49:04;;;;;;;6.32;4.55;;;;;;;17.92;69.92;101023.59;5045433;28;20416;-64
2023/06/25 04:51:30;;;;;;;5.82;4.93;;;;;;;18.20;70.28;101025.41;5045345;28;20048;-64
2023/06/25 04:53:55;;;;;;;8.77;5.90;;;;;;;18.70;70.84;101032.63;5045207;28;20035;-64
2023/06/25 04:56:20;;;;;;;7.00;5.30;;;;;;;19.19;70.50;101024.00;5045552;28;20537;-64
2023/06/25 04:58:46;;;;;;;8.07;4.97;;;;;;;19.50;69.51;101026.47;5044886;28;20037;-64
2023/06/25 05:01:11;;;;;;;6.35;4.43;;;;;;;19.63;68.98;101025.09;5045242;28;20021;-64
2023/06/25 05:03:37;;;;;;;6.43;4.55;;;;;;;19.64;68.73;101031.22;5045038;28;20036;-64
2023/06/25 05:06:02;;;;;;;5.55;4.10;;;;;;;19.70;69.05;101031.00;5045266;28;20022;-64
2023/06/25 05:08:28;;;;;;;4.95;4.05;;;;;;;19.88;69.19;101034.72;5045264;28;20022;-64
2023/06/25 05:10:53;;;;;;;7.22;4.75;;;;;;;20.06;69.30;101030.56;5047191;28;20040;-64
2023/06/25 05:13:18;;;;;;;7.45;4.50;;;;;;;20.49;69.60;101031.56;5049022;28;20055;-64
2023/06/25 05:15:44;;;;;;;6.63;5.07;;;;;;;21.32;70.54;101030.81;5049266;28;20059;-64
2023/06/25 05:18:10;;;;;;;4.50;3.90;;;;;;;22.33;70.74;101023.59;5048998;28;20049;-65
2023/06/25 05:20:36;;;;;;;4.93;3.83;;;;;;;23.46;69.38;101029.50;5031612;28;20446;-65
2023/06/25 05:23:05;;;;;;;6.25;5.15;;;;;;;24.21;66.07;101027.28;5049041;28;20037;-63
2023/06/25 05:25:34;;;;;;;5.82;3.92;;;;;;;24.94;65.83;101017.78;5049169;28;20030;-65
2023/06/25 05:28:03;;;;;;;6.03;3.85;;;;;;;25.93;65.96;101023.31;5048790;28;20026;-63
2023/06/25 05:30:30;;;;;;;6.45;4.28;;;;;;;26.71;64.67;101020.97;5049011;28;20056;-64
2023/06/25 05:32:56;;;;;;;8.43;3.35;;;;;;;27.04;58.54;101020.63;5048709;28;20383;-64
2023/06/25 05:35:23;;;;;;;5.85;3.58;;;;;;;26.97;56.78;101020.16;5048749;28;20059;-63
2023/06/25 05:37:49;;;;;;;4.40;3.55;;;;;;;26.95;55.20;101017.59;5047293;28;20542;-63
2023/06/25 05:40:14;;;;;;;2.75;2.47;;;;;;;27.49;56.94;101025.50;5048743;28;20037;-64
2023/06/25 05:42:40;;;;;;;2.70;2.35;;;;;;;27.68;56.67;101017.09;5048630;28;20044;-64
2023/06/25 05:45:07;;;;;;;5.78;3.00;;;;;;;27.43;56.58;101017.94;5030786;28;20047;-65
2023/06/25 05:47:32;;;;;;;3.67;3.15;;;;;;;27.27;55.93;101020.84;5048650;28;20022;-64
2023/06/25 05:49:58;;;;;;;5.03;2.67;;;;;;;26.89;54.31;101018.00;5048789;28;20037;-63
2023/06/25 05:52:23;;;;;;;3.47;2.65;;;;;;;26.84;53.62;101015.66;5048623;28;20021;-63
2023/06/25 05:54:48;;;;;;;5.90;2.95;;;;;;;26.65;53.52;101029.38;5048660;28;20021;-64
2023/06/25 05:57:14;;;;;;;6.63;3.30;;;;;;;26.05;51.88;101024.34;5048374;28;20048;-64
2023/06/25 05:59:39;;;;;;;2.92;2.42;;;;;;;26.10;53.99;101022.22;5048319;28;20030;-64
2023/06/25 06:02:07;;;;;;;4.30;2.97;;;;;;;26.32;51.95;101025.34;5048513;28;20040;-64
2023/06/25 06:04:36;;;;;;;4.60;3.58;;;;;;;26.07;49.33;101027.75;5048513;28;20025;-65
2023/06/25 06:07:02;;;;;;;5.20;3.13;;;;;;;25.77;50.36;101022.59;5048328;28;20089;-65
2023/06/25 06:09:28;;;;;;;4.20;2.80;;;;;;;25.71;50.46;101021.19;5048431;28;20025;-65
2023/06/25 06:11:53;;;;;;;2.65;2.08;;;;;;;25.69;50.80;101017.75;5048302;28;20022;-65
2023/06/25 06:14:19;;;;;;;2.58;2.20;;;;;;;25.65;50.58;101019.78;5048002;28;20109;-64
2023/06/25 06:16:44;;;;;;;4.28;2.88;;;;;;;25.30;51.07;100990.91;5048231;28;20029;-64
2023/06/25 06:19:09;;;;;;;5.00;3.05;;;;;;;25.17;51.44;101022.66;5046786;28;20060;-64
2023/06/25 06:21:35;;;;;;;3.80;2.90;;;;;;;25.03;51.19;101026.16;5047872;28;20025;-64
2023/06/25 06:24:00;;;;;;;4.65;2.90;;;;;;;24.91;51.08;101017.97;5047918;28;20073;-64
2023/06/25 06:26:26;;;;;;;3.28;2.50;;;;;;;24.57;50.71;101023.44;5047943;28;20025;-64
2023/06/25 06:28:52;;;;;;;3.40;2.70;;;;;;;24.27;51.39;101024.28;5047591;28;20021;-64
2023/06/25 06:31:18;;;;;;;3.53;2.78;;;;;;;23.82;51.58;101024.09;5048041;28;20017;-65
2023/06/25 06:33:43;;;;;;;2.58;2.38;;;;;;;23.66;52.06;101029.38;5047806;28;20060;-64
2023/06/25 06:36:08;;;;;;;4.50;2.75;;;;;;;23.33;52.52;101020.44;5047799;28;20411;-64
2023/06/25 06:38:34;;;;;;;5.80;3.17;;;;;;;23.11;52.35;101025.09;5047630;28;20053;-65
2023/06/25 06:40:59;;;;;;;3.50;3.13;;;;;;;22.88;52.89;101034.19;5047872;28;20108;-64
2023/06/25 06:43:25;;;;;;;5.38;2.83;;;;;;;22.50;53.31;101040.44;5047548;28;20022;-64
2023/06/25 06:45:50;;;;;;;3.45;2.60;;;;;;;22.35;53.81;101026.19;5047858;28;20056;-64
2023/06/25 06:48:16;;;;;;;3.17;2.30;;;;;;;22.19;54.12;101024.25;5047599;28;20017;-64
2023/06/25 06:50:41;;;;;;;7.25;2.15;;;;;;;21.99;54.30;101015.50;5047601;28;20026;-64
2023/06/25 06:53:06;;;;;;;6.00;3.08;;;;;;;22.03;54.17;101024.13;5047417;28;20104;-65
2023/06/25 06:55:33;;;;;;;4.25;2.67;;;;;;;22.08;54.43;101029.22;5047635;28;20030;-65
2023/06/25 06:57:58;;;;;;;3.85;3.00;;;;;;;22.09;54.18;101028.28;5047149;28;20021;-65
2023/06/25 07:00:23;;;;;;;6.00;2.55;;;;;;;22.02;54.68;101031.22;5047320;28;20467;-64
2023/06/25 07:02:49;;;;;;;4.10;3.35;;;;;;;22.05;54.76;101027.56;5047294;28;20021;-65
2023/06/25 07:05:15;;;;;;;4.90;2.90;;;;;;;22.11;54.81;101034.34;5045970;28;20021;-64
2023/06/25 07:07:41;;;;;;;4.10;2.85;;;;;;;22.03;55.12;101032.91;5047282;28;20022;-65
2023/06/25 07:10:07;;;;;;;4.50;3.28;;;;;;;21.98;54.71;101021.69;5047344;28;20108;-65
2023/06/25 07:12:33;;;;;;;3.67;2.70;;;;;;;21.89;55.29;101024.78;5047060;28;20025;-65
2023/06/25 07:14:59;;;;;;;3.75;2.97;;;;;;;21.82;55.39;101034.75;5046863;28;20465;-65
2023/06/25 07:17:24;;;;;;;5.35;3.42;;;;;;;21.77;55.37;101027.03;5047035;28;20093;-64
2023/06/25 07:19:50;;;;;;;3.50;3.15;;;;;;;21.62;55.43;101033.00;5046950;28;20025;-65
2023/06/25 07:22:15;;;;;;;5.93;3.83;;;;;;;21.40;56.15;101028.69;5046803;28;20168;-63
2023/06/25 07:24:41;;;;;;;3.38;2.83;;;;;;;21.39;56.55;101032.28;5046963;28;20363;-64
2023/06/25 07:27:06;;;;;;;5.22;3.92;;;;;;;21.26;56.89;101027.50;5046812;28;20033;-64
2023/06/25 07:29:32;;;;;;;3.75;3.35;;;;;;;21.37;56.55;101034.09;5046715;28;20052;-64
2023/06/25 07:31:57;;;;;;;4.70;3.33;;;;;;;21.31;56.98;101032.56;5047099;28;20059;-64
2023/06/25 07:34:23;;;;;;;7.30;4.00;;;;;;;21.35;56.43;101030.66;5045574;28;20072;-64
2023/06/25 07:36:48;;;;;;;4.43;2.90;;;;;;;21.24;56.55;101037.28;5046773;28;20022;-66
2023/06/25 07:39:25;;;;;;;3.47;2.72;;;;;;;21.15;56.75;101045.63;5046383;28;20038;-64
2023/06/25 07:41:52;;;;;;;3.90;3.03;;;;;;;20.99;57.56;101045.41;5046653;28;20048;-64
2023/06/25 07:44:18;;;;;;;5.65;2.70;;;;;;;20.94;57.36;101040.31;5046235;28;20105;-65
2023/06/25 07:46:43;;;;;;;5.93;3.30;;;;;;;20.93;57.36;101043.88;5046546;28;20032;-64
2023/06/25 07:49:09;;;;;;;8.38;3.78;;;;;;;20.88;57.37;101025.56;5046214;28;20021;-64
2023/06/25 07:51:34;;;;;;;5.60;3.45;;;;;;;20.93;57.70;101038.59;5046324;28;20029;-65
2023/06/25 07:53:59;;;;;;;3.80;3.00;;;;;;;20.84;58.24;101036.31;5046134;28;20021;-64
2023/06/25 07:56:25;;;;;;;6.40;3.60;;;;;;;20.83;58.27;101040.72;5046276;28;20551;-63
2023/06/25 07:58:50;;;;;;;6.15;3.25;;;;;;;20.83;58.15;101042.53;5045608;28;20044;-61
2023/06/25 08:01:15;;;;;;;4.80;3.38;;;;;;;20.85;58.00;101038.88;5045855;28;20035;-63
2023/06/25 08:03:41;;;;;;;5.68;4.07;;;;;;;20.90;57.82;101043.97;5045784;28;20031;-62
2023/06/25 08:06:06;;;;;;;4.82;3.20;;;;;;;20.90;58.32;101036.03;5046308;28;20029;-63
2023/06/25 08:08:32;;;;;;;3.92;3.17;;;;;;;21.11;58.09;101049.28;5045490;28;20049;-61
2023/06/25 08:10:57;;;;;;;4.40;2.85;;;;;;;21.26;58.29;101039.88;5045720;28;20032;-61
2023/06/25 08:13:22;;;;;;;3.40;2.90;;;;;;;21.26;58.36;101035.41;5045400;28;20374;-60
2023/06/25 08:15:48;;;;;;;8.25;3.97;;;;;;;21.26;58.68;101027.50;5045972;28;20014;-61
2023/06/25 08:18:13;;;;;;;5.20;3.22;;;;;;;21.42;58.60;101040.06;5045492;28;20458;-60
2023/06/25 08:20:39;;;;;;;4.38;3.00;;;;;;;21.48;58.14;101042.41;5045874;28;20044;-61
2023/06/25 08:23:04;;;;;;;3.67;2.53;;;;;;;21.58;58.12;101042.84;5027814;28;20029;-60
2023/06/25 08:25:31;;;;;;;7.68;3.20;;;;;;;21.73;58.13;101051.88;5044501;28;20033;-61
2023/06/25 08:27:57;;;;;;;4.88;2.97;;;;;;;21.94;58.06;101041.28;5045533;28;20028;-60
2023/06/25 08:30:23;;;;;;;3.45;2.72;;;;;;;22.14;58.13;101044.78;5045419;28;20021;-60
2023/06/25 08:32:48;;;;;;;4.22;2.90;;;;;;;22.24;57.15;101040.75;5045488;28;20032;-59
2023/06/25 08:35:14;;;;;;;6.10;3.30;;;;;;;22.33;56.84;101049.19;5045322;28;20618;-60
2023/06/25 08:37:39;;;;;;;4.80;3.50;;;;;;;22.28;56.45;101041.47;5045241;28;20017;-59
2023/06/25 08:40:05;;;;;;;4.15;2.60;;;;;;;22.24;56.69;101043.41;5027784;28;20026;-60
2023/06/25 08:42:30;;;;;;;3.78;2.53;;;;;;;22.25;56.72;101050.41;5045353;28;20044;-60
2023/06/25 08:44:56;;;;;;;3.63;2.50;;;;;;;22.29;56.72;101040.53;5045268;28;20033;-59
2023/06/25 08:47:26;;;;;;;5.82;2.92;;;;;;;22.33;56.47;101042.13;5045469;28;20029;-60
2023/06/25 08:49:54;;;;;;;3.28;2.38;;;;;;;22.32;56.39;101036.91;5045342;28;20097;-64
2023/06/25 08:52:23;;;;;;;5.03;3.40;;;;;;;22.45;56.78;101042.44;5045388;28;20029;-63
2023/06/25 08:54:49;;;;;;;2.55;2.35;;;;;;;22.52;56.66;101036.75;5045166;28;20104;-64
2023/06/25 08:57:16;;;;;;;4.32;3.13;;;;;;;22.59;56.25;101040.00;5045239;28;20033;-64
2023/06/25 08:59:42;;;;;;;3.03;2.40;;;;;;;22.73;56.42;101030.53;5045073;28;20040;-64
2023/06/25 09:02:07;;;;;;;9.90;2.80;;;;;;;22.82;56.18;101024.78;5045428;28;20065;-64
2023/06/25 09:04:33;;;;;;;4.97;2.97;;;;;;;22.89;55.02;101020.03;5045374;28;20029;-64
2023/06/25 09:07:08;;;;;;;3.53;2.22;;;;;;;23.11;55.46;101024.22;5043939;28;20022;-64
2023/06/25 09:09:34;;;;;;;2.78;2.35;;;;;;;23.31;55.22;101017.88;5045198;28;20063;-64
2023/06/25 09:11:59;;;;;;;4.18;2.67;;;;;;;23.47;55.18;101025.03;5045131;28;20029;-64
2023/06/25 09:14:25;;;;;;;3.80;2.75;;;;;;;23.62;54.77;101013.63;5044925;28;20068;-64
2023/06/25 09:16:51;;;;;;;3.50;2.75;;;;;;;23.83;54.83;101020.47;5045341;28;20025;-65
2023/06/25 09:19:20;;;;;;;2.90;2.15;;;;;;;23.88;54.62;101015.78;5027176;28;20018;-64
2023/06/25 09:21:46;;;;;;;5.10;2.83;;;;;;;23.89;54.02;101012.19;5045040;28;20163;-64
2023/06/25 09:24:14;;;;;;;3.92;2.33;;;;;;;23.91;53.89;101018.28;5044957;28;20025;-65
2023/06/25 09:26:50;;;;;;;5.72;3.22;;;;;;;23.89;51.83;101017.50;5043721;28;20505;-64
2023/06/25 09:29:17;;;;;;;3.53;2.92;;;;;;;23.70;52.57;101013.22;5044874;28;20018;-64
2023/06/25 09:31:44;;;;;;;4.18;2.70;;;;;;;23.75;53.64;101012.97;5045165;28;20025;-65
2023/06/25 09:34:10;;;;;;;3.03;2.40;;;;;;;23.75;53.14;101018.25;5044754;28;20393;-64
2023/06/25 09:36:36;;;;;;;3.75;2.97;;;;;;;23.83;53.28;101016.06;5045134;28;20021;-64
2023/06/25 09:39:04;;;;;;;6.40;2.70;;;;;;;23.98;53.00;101019.63;5044923;28;20048;-64
2023/06/25 09:41:32;;;;;;;5.45;2.85;;;;;;;24.09;52.31;101020.84;5045038;28;20056;-64
2023/06/25 09:44:00;;;;;;;5.43;3.47;;;;;;;24.17;52.62;101015.97;5044509;28;20021;-64
2023/06/25 09:46:27;;;;;;;4.45;3.40;;;;;;;24.45;52.78;101017.06;5044929;28;20037;-64
2023/06/25 09:48:55;;;;;;;7.32;3.13;;;;;;;25.04;52.00;101002.16;5044682;28;20033;-65
2023/06/25 09:51:28;;;;;;;3.42;2.60;;;;;;;25.28;51.27;100998.09;5045263;28;20055;-64
2023/06/25 09:53:56;;;;;;;4.20;2.90;;;;;;;25.28;51.32;100995.44;5044778;28;20022;-64
2023/06/25 09:56:22;;;;;;;4.22;2.35;;;;;;;25.52;50.95;101005.50;5045936;28;20060;-65
2023/06/25 09:58:49;;;;;;;3.35;2.22;;;;;;;25.63;50.79;101003.06;5047927;28;20025;-64
2023/06/25 10:01:15;;;;;;;3.22;2.40;;;;;;;25.59;50.40;101002.34;5048509;28;20037;-65
2023/06/25 10:03:42;;;;;;;3.17;2.47;;;;;;;25.49;49.72;101001.22;5048339;28;20022;-65
2023/06/25 10:06:08;;;;;;;3.17;2.30;;;;;;;25.40;50.00;101004.47;5048513;28;20025;-64
2023/06/25 10:08:33;;;;;;;2.30;2.10;;;;;;;25.41;50.33;100996.41;5048219;28;20032;-65
2023/06/25 10:11:00;;;;;;;3.65;2.22;;;;;;;25.43;50.21;100996.31;5048308;28;20025;-64
2023/06/25 10:13:26;;;;;;;3.33;2.53;;;;;;;25.57;49.85;101003.41;5047876;28;20105;-65
2023/06/25 10:16:00;;;;;;;4.70;2.40;;;;;;;25.45;49.03;100995.25;5048434;28;20075;-64
2023/06/25 10:18:26;;;;;;;3.00;1.95;;;;;;;25.26;48.67;100995.53;5047937;28;20022;-65
2023/06/25 10:20:56;;;;;;;4.00;2.70;;;;;;;25.19;49.45;100994.22;5047884;28;20022;-64
2023/06/25 10:23:23;;;;;;;2.63;1.67;;;;;;;25.27;49.45;100997.25;5048255;28;20039;-64
2023/06/25 10:25:56;;;;;;;2.63;2.13;;;;;;;25.36;49.58;101001.13;5048141;28;20055;-65
2023/06/25 10:28:49;;;;;;;3.00;2.15;;;;;;;25.33;47.74;100996.03;5047669;28;20013;-64
2023/06/25 10:31:16;;;;;;;3.55;1.90;;;;;;;25.46;49.05;100994.28;5047890;28;20492;-65
2023/06/25 10:33:42;;;;;;;2.80;2.28;;;;;;;26.81;48.96;100994.56;5047633;28;20084;-64
2023/06/25 10:36:08;;;;;;;4.13;2.22;;;;;;;28.12;47.13;100989.06;5048093;28;20032;-64
2023/06/25 10:38:34;;;;;;;5.13;2.25;;;;;;;29.34;45.17;100985.25;5047980;28;20033;-64
2023/06/25 10:41:00;;;;;;;3.17;2.20;;;;;;;29.94;42.62;100982.25;5047690;28;20021;-64
2023/06/25 10:43:25;;;;;;;4.68;2.10;;;;;;;30.16;41.22;100984.00;5047405;28;20028;-64
2023/06/25 10:45:56;;;;;;;2.90;2.03;;;;;;;30.22;41.17;100987.19;5047813;28;20081;-64
2023/06/25 10:48:22;;;;;;;3.30;2.13;;;;;;;30.42;40.66;100986.38;5029865;28;20656;-64
2023/06/25 10:50:48;;;;;;;3.88;2.35;;;;;;;30.61;39.68;100990.16;5047706;28;20085;-65
2023/06/25 10:53:18;;;;;;;2.03;1.77;;;;;;;30.44;39.47;100980.88;5047352;28;20025;-65
2023/06/25 10:55:49;;;;;;;2.42;2.10;;;;;;;29.92;39.99;100977.03;5046345;28;20021;-65
2023/06/25 10:58:16;;;;;;;3.03;2.13;;;;;;;29.83;40.70;100985.81;5047261;28;20124;-64
2023/06/25 11:00:43;;;;;;;2.17;1.92;;;;;;;29.25;40.82;100977.00;5047238;28;20084;-64
2023/06/25 11:03:08;;;;;;;1.88;1.38;;;;;;;28.53;41.95;100997.66;5047045;28;20108;-64
2023/06/25 11:05:39;;;;;;;2.28;1.85;;;;;;;27.94;41.09;100987.63;5047281;28;20025;-64
2023/06/25 11:08:05;;;;;;;3.40;2.30;;;;;;;27.45;42.57;100982.22;5028201;28;20029;-66
2023/06/25 11:10:32;;;;;;;7.13;1.50;;;;;;;27.04;43.44;100985.97;5047460;28;20022;-64
2023/06/25 11:12:58;;;;;;;2.50;1.70;;;;;;;26.81;43.87;100983.91;5046973;28;20047;-63
2023/06/25 11:15:23;;;;;;;3.58;1.95;;;;;;;26.65;43.80;100978.78;5045521;28;20033;-64
2023/06/25 11:17:52;;;;;;;3.28;2.35;;;;;;;26.24;44.15;100984.09;5047132;28;20514;-64
2023/06/25 11:20:25;;;;;;;3.58;2.35;;;;;;;25.88;44.57;100974.88;5047050;28;20226;-65